Página principal
METAR-TAF:

METAR-TAF

Aeroportos :

Xian, China

Aeroporto Internacional de Xi'an Xianyang

latitude: 34-26N, longitude: 108-45E, altura: 479 m

Observação actual do tempo

O boletim foi feito há 1 hora e 6 minutos, às 01:00 UTC
Vento calmo
Temperatura 12°C
Humidade 100%
Pressão 1025 hPa
Visibilidade: 2500 m
neblina

METAR: ZLXY 180100Z 00000MPS 2500 BR NSC 12/12 Q1025 BECMG TL0240 3000

Hora: 10:06 (02:06 UTC)

Previsão

O boletim foi feito há 6 horas e 56 minutos, às 19:10 UTC
Previsão válida de 18 às 00 UTC a 18 às 24 UTC
Vento 6 kt de es-nordeste
Visibilidade: 3000 m
bruma

TAF: ZLXY 171910Z 1800/1824 06003MPS 3000 HZ NSC TX17/1808Z TN07/1823Z

Observações e previsões do tempo de mais de 4000 aeroportos (mensagens METAR e TAF).

As estações disponíveis são os pontos amarelos e vermelhos sobre o mapa.

Mova o rato sobre o mapa para ver o nome da estação.

Depois clique no ponto para visualizar as observações e previsões meteorológicas.

Para alterar o mapa : clique nos botões verdes com uma cruz preta para aumentar o zoom; no botão verde com uma pitada de zoom; ou nas setas verdes para mapas adjacentes.


METAR-TAF: